Time;durP1;ratioP1;P1;durP2;ratioP2;P2;SDS_P1;SDS_P2;PMS_P1;PMS_P2;Temp;Humidity;BMP_temperature;BMP_pressure;BME280_temperature;BME280_humidity;BME280_pressure;Samples;Min_cycle;Max_cycle;Signal;HPM_P1;HPM_P2
2022/03/23 00:02:39;;;;;;;4.70;4.13;;;;;;;22.44;24.67;96204.25;6177234;28;102803;-45
2022/03/23 00:05:42;;;;;;;5.03;4.63;;;;;;;22.44;24.67;96204.25;6181558;28;103536;-45
2022/03/23 00:08:45;;;;;;;4.77;4.37;;;;;;;22.39;24.59;96192.84;6164038;28;103281;-45
2022/03/23 00:11:46;;;;;;;6.17;4.73;;;;;;;22.39;24.63;96193.66;6183190;28;102670;-45
2022/03/23 00:14:48;;;;;;;5.00;4.57;;;;;;;22.39;24.64;96190.19;6177730;28;105333;-45
2022/03/23 00:17:50;;;;;;;4.13;3.73;;;;;;;22.44;24.80;96190.94;6183597;28;103259;-45
2022/03/23 00:20:52;;;;;;;4.50;4.10;;;;;;;22.44;24.64;96201.59;6181626;28;103953;-44
2022/03/23 00:23:54;;;;;;;4.50;4.10;;;;;;;22.44;24.30;96192.81;6182452;28;102805;-44
2022/03/23 00:26:56;;;;;;;4.53;4.13;;;;;;;22.40;24.56;96181.94;6175743;28;102912;-44
2022/03/23 00:29:58;;;;;;;4.80;3.67;;;;;;;22.43;24.47;96181.38;6164172;28;102785;-46
2022/03/23 00:33:03;;;;;;;4.50;4.10;;;;;;;22.43;24.61;96184.03;6178621;28;102920;-45
2022/03/23 00:36:07;;;;;;;4.33;3.97;;;;;;;22.42;24.18;96187.78;6163699;28;103262;-45
2022/03/23 00:39:09;;;;;;;3.60;3.30;;;;;;;22.41;24.16;96180.84;6181792;28;103448;-45
2022/03/23 00:42:11;;;;;;;4.13;3.83;;;;;;;22.41;24.36;96175.53;6182104;28;102725;-45
2022/03/23 00:45:12;;;;;;;4.20;3.77;;;;;;;22.41;24.66;96178.19;6181798;28;102713;-45
2022/03/23 00:48:14;;;;;;;3.83;3.53;;;;;;;22.42;24.33;96177.13;6175926;28;103488;-45
2022/03/23 00:51:16;;;;;;;3.90;3.60;;;;;;;22.41;24.44;96175.53;6182016;28;103139;-45
2022/03/23 00:54:18;;;;;;;4.47;3.80;;;;;;;22.42;24.42;96176.31;6182549;28;102748;-45
2022/03/23 00:57:20;;;;;;;3.70;3.40;;;;;;;22.41;24.30;96175.53;6173346;28;102845;-45
2022/03/23 01:00:22;;;;;;;5.50;4.37;;;;;;;22.38;24.38;96168.09;6176302;28;103460;-45
2022/03/23 01:03:24;;;;;;;4.43;3.30;;;;;;;22.39;24.50;96171.56;6163398;28;102788;-45
2022/03/23 01:06:26;;;;;;;3.87;3.57;;;;;;;22.43;24.12;96169.94;6162566;28;103249;-45
2022/03/23 01:09:28;;;;;;;3.40;2.70;;;;;;;22.43;24.08;96177.91;6176216;28;102783;-44
2022/03/23 01:12:30;;;;;;;3.10;2.80;;;;;;;22.40;24.04;96168.63;6182612;28;102737;-45
2022/03/23 01:15:33;;;;;;;2.97;2.77;;;;;;;22.42;24.03;96174.47;6181036;28;103318;-45
2022/03/23 01:18:34;;;;;;;3.27;2.97;;;;;;;22.44;23.74;96174.97;6176991;28;103055;-43
2022/03/23 01:21:36;;;;;;;3.40;2.67;;;;;;;22.43;23.94;96173.38;6179659;28;102979;-44
2022/03/23 01:24:38;;;;;;;3.00;2.70;;;;;;;22.41;23.99;96164.06;6184285;28;102730;-45
2022/03/23 01:27:42;;;;;;;3.20;2.70;;;;;;;22.43;23.88;96172.59;6180079;28;102761;-45
2022/03/23 01:30:43;;;;;;;3.03;2.60;;;;;;;22.38;24.03;96162.75;6175570;28;102763;-44
2022/03/23 01:33:45;;;;;;;2.60;2.40;;;;;;;22.38;24.00;96169.97;6186066;28;102931;-45
2022/03/23 01:36:47;;;;;;;2.83;2.63;;;;;;;22.39;24.07;96163.56;6184806;28;103049;-44
2022/03/23 01:39:49;;;;;;;2.83;2.63;;;;;;;22.34;23.91;96159.06;6185920;28;103171;-45
2022/03/23 01:42:51;;;;;;;3.03;2.73;;;;;;;22.38;23.90;96159.31;6180177;28;103282;-44
2022/03/23 01:45:53;;;;;;;3.20;2.67;;;;;;;22.36;23.84;96164.13;6185713;28;102732;-44
2022/03/23 01:48:55;;;;;;;2.93;2.67;;;;;;;22.36;24.09;96156.91;6185534;28;102793;-45
2022/03/23 01:51:56;;;;;;;2.60;2.40;;;;;;;22.36;23.97;96156.91;6181059;28;102822;-44
2022/03/23 01:55:01;;;;;;;3.13;2.83;;;;;;;22.35;24.09;96160.66;6185797;28;102772;-45
2022/03/23 01:58:03;;;;;;;2.63;2.30;;;;;;;22.37;24.18;96168.38;6184322;28;102911;-45
2022/03/23 02:01:05;;;;;;;2.70;2.50;;;;;;;22.35;23.97;96163.31;6185070;28;103114;-43
2022/03/23 02:04:08;;;;;;;3.47;2.70;;;;;;;22.36;23.86;96162.25;6180823;28;103270;-44
2022/03/23 02:07:10;;;;;;;3.10;2.80;;;;;;;22.35;23.62;96160.66;6185593;28;102914;-45
2022/03/23 02:10:12;;;;;;;2.73;2.53;;;;;;;22.35;23.83;96168.66;6184772;28;103090;-45
2022/03/23 02:13:13;;;;;;;2.53;2.33;;;;;;;22.33;23.83;96162.75;6185512;28;103248;-45
2022/03/23 02:16:15;;;;;;;3.67;2.60;;;;;;;22.34;23.84;96167.06;6178711;28;102752;-45
2022/03/23 02:19:18;;;;;;;2.63;2.43;;;;;;;22.34;23.80;96159.06;6183975;28;102898;-44
2022/03/23 02:22:20;;;;;;;2.63;2.43;;;;;;;22.34;23.75;96161.72;6185261;28;103017;-44
2022/03/23 02:25:26;;;;;;;3.10;2.57;;;;;;;22.34;24.04;96164.38;6179922;28;103988;-43
2022/03/23 02:28:28;;;;;;;2.97;2.67;;;;;;;22.30;23.62;96158.00;6182621;28;102915;-44
2022/03/23 02:31:31;;;;;;;2.80;2.60;;;;;;;22.33;23.82;96162.75;6183154;28;103484;-45
2022/03/23 02:34:35;;;;;;;3.07;2.70;;;;;;;22.33;23.62;96168.09;6177823;28;102979;-44
2022/03/23 02:37:39;;;;;;;2.90;2.60;;;;;;;22.30;23.71;96173.97;6173842;28;103618;-45
2022/03/23 02:40:41;;;;;;;3.80;2.90;;;;;;;22.33;23.50;96181.41;6183402;28;103236;-45
2022/03/23 02:43:43;;;;;;;2.80;2.60;;;;;;;22.32;23.74;96182.47;6183089;28;103012;-44
2022/03/23 02:46:45;;;;;;;3.03;2.80;;;;;;;22.26;23.63;96178.25;6179476;28;102758;-45
2022/03/23 02:49:47;;;;;;;3.23;2.93;;;;;;;22.32;23.40;96185.13;6182682;28;103478;-45
2022/03/23 03:02:58;;;;;;;3.00;2.70;;;;;;;22.23;23.54;96170.03;6184487;28;102848;-45
2022/03/23 03:06:06;;;;;;;3.20;2.90;;;;;;;22.27;23.63;96187.81;6177368;28;102811;-45
2022/03/23 03:09:07;;;;;;;3.30;3.00;;;;;;;22.31;23.68;96185.41;6154706;28;103573;-45
2022/03/23 03:12:11;;;;;;;3.20;2.90;;;;;;;22.30;23.53;96192.59;6184213;28;102799;-43
2022/03/23 03:15:15;;;;;;;3.70;3.40;;;;;;;22.29;23.58;96187.56;6183351;28;102745;-44
2022/03/23 03:18:19;;;;;;;3.50;3.20;;;;;;;22.29;23.74;96188.34;6184703;28;102785;-44
2022/03/23 03:21:21;;;;;;;4.47;3.60;;;;;;;22.30;23.64;96179.28;6177325;28;103446;-45
2022/03/23 03:24:23;;;;;;;3.40;3.10;;;;;;;22.31;23.73;96196.84;6184983;28;102885;-45
2022/03/23 03:27:25;;;;;;;3.17;2.87;;;;;;;22.29;23.34;96188.34;6164902;28;102870;-44
2022/03/23 03:30:27;;;;;;;3.77;3.30;;;;;;;22.31;23.49;96190.75;6183734;28;103626;-45
2022/03/23 03:33:29;;;;;;;4.70;3.30;;;;;;;22.30;23.45;96195.25;6177428;28;104097;-45
2022/03/23 03:36:31;;;;;;;2.90;2.60;;;;;;;22.29;23.73;96191.00;6182397;28;102966;-45
2022/03/23 03:39:33;;;;;;;6.70;3.70;;;;;;;22.30;23.46;96192.59;6182826;28;102696;-45
2022/03/23 03:42:35;;;;;;;5.47;3.30;;;;;;;22.30;23.19;96189.16;6177189;28;103386;-49
2022/03/23 03:45:37;;;;;;;3.73;3.37;;;;;;;22.31;23.75;96180.88;6183592;28;103361;-47
2022/03/23 03:48:40;;;;;;;5.23;4.20;;;;;;;22.31;23.65;96183.53;6181866;28;102933;-48
2022/03/23 03:51:43;;;;;;;6.10;5.30;;;;;;;22.29;23.81;96188.34;6183387;28;103463;-47
2022/03/23 03:54:45;;;;;;;6.97;5.83;;;;;;;22.24;23.69;96169.75;6175702;28;102788;-44
2022/03/23 03:57:47;;;;;;;7.57;6.90;;;;;;;22.29;23.91;96188.34;6163717;28;103165;-48
2022/03/23 04:00:49;;;;;;;7.03;6.43;;;;;;;22.29;23.55;96191.00;6182367;28;103128;-46
2022/03/23 04:03:51;;;;;;;8.30;7.60;;;;;;;22.31;23.89;96198.72;6173521;28;103744;-47
2022/03/23 04:06:53;;;;;;;9.80;7.17;;;;;;;22.28;23.83;96192.09;6181773;28;103095;-47
2022/03/23 04:09:54;;;;;;;8.07;7.37;;;;;;;22.26;23.44;96199.53;6182559;28;102735;-44
2022/03/23 04:12:57;;;;;;;7.77;6.97;;;;;;;22.27;23.79;96200.34;6178426;28;103070;-46
2022/03/23 04:15:58;;;;;;;7.27;6.67;;;;;;;22.27;23.96;96190.50;6151530;28;102838;-48
2022/03/23 04:19:00;;;;;;;7.60;6.90;;;;;;;22.29;24.09;96201.66;6172633;28;103800;-48
2022/03/23 04:22:02;;;;;;;7.80;7.10;;;;;;;22.28;24.38;96205.38;6145930;28;103431;-44
2022/03/23 04:25:14;;;;;;;7.90;7.03;;;;;;;22.31;24.44;96202.19;6162864;28;103794;-48
2022/03/23 04:28:17;;;;;;;7.33;6.70;;;;;;;22.33;24.50;96199.25;6150492;28;102869;-48
2022/03/23 04:31:19;;;;;;;6.93;6.23;;;;;;;22.33;24.86;96212.56;6173455;28;103326;-48
2022/03/23 04:34:20;;;;;;;9.10;6.20;;;;;;;22.33;24.84;96197.38;6156616;28;102844;-42
2022/03/23 04:37:22;;;;;;;6.90;6.00;;;;;;;22.32;24.67;96198.44;6170065;28;103143;-47
2022/03/23 04:40:25;;;;;;;7.13;6.53;;;;;;;22.19;24.59;96202.50;6180298;28;103174;-47
2022/03/23 04:43:27;;;;;;;8.07;5.60;;;;;;;22.12;24.26;96194.00;6179997;28;104564;-46
2022/03/23 04:46:29;;;;;;;6.50;5.57;;;;;;;22.05;23.58;96206.00;6182069;28;102731;-43
2022/03/23 04:49:30;;;;;;;8.03;5.47;;;;;;;21.97;23.62;96206.50;6173564;28;102868;-47
2022/03/23 04:52:33;;;;;;;9.10;5.30;;;;;;;22.00;26.13;96203.31;6174270;28;102897;-42
2022/03/23 04:55:35;;;;;;;8.30;4.50;;;;;;;22.16;24.38;96204.88;6166547;28;103353;-45
2022/03/23 04:58:36;;;;;;;7.77;4.30;;;;;;;22.24;23.31;96198.22;6172640;28;103137;-47
2022/03/23 05:01:38;;;;;;;9.33;3.63;;;;;;;22.26;23.23;96199.53;6175908;28;102917;-46
2022/03/23 05:04:40;;;;;;;6.73;3.27;;;;;;;22.28;22.79;96197.41;6173451;28;104872;-46
2022/03/23 05:07:43;;;;;;;6.83;3.53;;;;;;;22.39;22.85;96198.97;6170776;28;103540;-49
2022/03/23 05:10:45;;;;;;;8.17;3.93;;;;;;;22.45;24.00;96200.53;6170530;28;103648;-46
2022/03/23 05:13:46;;;;;;;7.10;4.07;;;;;;;22.47;25.17;96211.72;6169459;28;102766;-46
2022/03/23 05:16:48;;;;;;;6.33;4.23;;;;;;;22.45;23.60;96208.53;6177266;28;103320;-48
2022/03/23 05:19:50;;;;;;;9.97;4.13;;;;;;;22.43;24.04;96200.00;6176995;28;102817;-47
2022/03/23 05:22:53;;;;;;;6.30;4.17;;;;;;;22.55;24.40;96207.69;6171085;28;102888;-47
2022/03/23 05:25:55;;;;;;;5.70;3.90;;;;;;;22.56;24.52;96213.81;6161711;28;102850;-47
2022/03/23 05:29:02;;;;;;;8.20;4.20;;;;;;;22.61;24.40;96217.25;6179007;28;103129;-47
2022/03/23 05:32:05;;;;;;;7.33;6.63;;;;;;;22.63;24.53;96206.31;6172277;28;102876;-48
2022/03/23 05:35:12;;;;;;;8.77;7.07;;;;;;;22.66;24.88;96211.09;6177560;28;103546;-48
2022/03/23 05:38:14;;;;;;;8.93;8.03;;;;;;;22.66;24.64;96213.75;6177914;28;102809;-47
2022/03/23 05:41:17;;;;;;;9.00;8.10;;;;;;;22.69;24.77;96221.22;6177372;28;103007;-47
2022/03/23 05:44:20;;;;;;;10.07;9.07;;;;;;;22.70;24.58;96212.16;6171865;28;102857;-48
2022/03/23 05:47:22;;;;;;;11.67;9.47;;;;;;;22.70;24.46;96214.81;6179838;28;103177;-48
2022/03/23 05:50:24;;;;;;;10.50;9.50;;;;;;;22.73;24.67;96215.06;6179144;28;102839;-48
2022/03/23 05:53:25;;;;;;;11.90;10.80;;;;;;;22.72;24.68;96213.47;6180676;28;103097;-48
2022/03/23 05:56:27;;;;;;;11.63;10.53;;;;;;;22.68;24.54;96204.44;6174317;28;102781;-47
2022/03/23 05:59:30;;;;;;;10.40;9.50;;;;;;;22.75;24.59;96217.44;6179674;28;103302;-47
2022/03/23 06:02:32;;;;;;;12.87;11.50;;;;;;;22.69;24.98;96213.22;6179472;28;102747;-44
2022/03/23 06:05:34;;;;;;;12.57;11.33;;;;;;;22.77;24.72;96220.63;6174011;28;102739;-43
2022/03/23 06:08:36;;;;;;;12.47;11.37;;;;;;;22.79;24.40;96223.81;6179383;28;102757;-48
2022/03/23 06:11:38;;;;;;;13.30;10.73;;;;;;;22.79;24.77;96221.16;6179052;28;102822;-46
2022/03/23 06:14:42;;;;;;;11.73;10.60;;;;;;;22.79;24.81;96229.94;6179783;28;102824;-49
2022/03/23 06:17:44;;;;;;;12.13;10.90;;;;;;;22.84;24.91;96223.03;6174986;28;105236;-48
2022/03/23 06:20:46;;;;;;;11.97;10.87;;;;;;;22.98;24.35;96232.00;6183220;28;102759;-48
2022/03/23 06:23:47;;;;;;;11.97;10.80;;;;;;;23.07;24.10;96219.69;6191171;28;103131;-47
2022/03/23 06:26:49;;;;;;;13.50;11.50;;;;;;;23.20;24.97;96224.41;6207641;28;103328;-48
2022/03/23 06:29:51;;;;;;;12.83;11.63;;;;;;;23.30;25.76;96234.19;6203881;28;102832;-47
2022/03/23 06:32:53;;;;;;;17.30;12.83;;;;;;;23.37;26.10;96227.50;6207396;28;102964;-47
2022/03/23 06:35:55;;;;;;;14.90;13.47;;;;;;;23.43;26.52;96217.56;6207274;28;102745;-48
2022/03/23 06:38:56;;;;;;;15.50;13.90;;;;;;;23.48;26.72;96217.53;6202548;28;102722;-47
2022/03/23 06:41:59;;;;;;;16.70;14.53;;;;;;;23.52;26.59;96217.78;6207452;28;103154;-46
2022/03/23 06:45:02;;;;;;;15.73;14.13;;;;;;;23.59;26.34;96229.75;6208101;28;102774;-47
2022/03/23 06:48:04;;;;;;;16.07;14.50;;;;;;;23.62;26.42;96225.72;6207991;28;103681;-48
2022/03/23 06:51:05;;;;;;;18.50;16.17;;;;;;;23.52;26.24;96204.44;6201411;28;102874;-48
2022/03/23 06:54:07;;;;;;;17.47;15.67;;;;;;;23.70;26.48;96233.94;6206562;28;102936;-43
2022/03/23 06:57:09;;;;;;;19.03;17.03;;;;;;;23.72;26.36;96222.19;6207557;28;103189;-47
2022/03/23 07:00:14;;;;;;;17.10;15.57;;;;;;;23.85;26.06;96234.84;6202700;28;102761;-47
2022/03/23 07:03:16;;;;;;;20.10;18.10;;;;;;;23.89;26.18;96225.22;6206985;28;102858;-48
2022/03/23 07:06:17;;;;;;;19.80;18.00;;;;;;;23.93;26.56;96226.25;6206933;28;102729;-48
2022/03/23 07:09:31;;;;;;;19.20;17.20;;;;;;;23.92;26.28;96230.78;6207283;28;102746;-48
2022/03/23 07:12:33;;;;;;;17.83;16.33;;;;;;;23.98;26.20;96239.53;6201257;28;103086;-45
2022/03/23 07:15:35;;;;;;;19.43;17.43;;;;;;;23.99;26.13;96231.25;6207129;28;103205;-48
2022/03/23 07:18:37;;;;;;;20.23;18.30;;;;;;;23.97;26.26;96233.41;6206543;28;102765;-48
2022/03/23 07:21:39;;;;;;;20.73;18.93;;;;;;;23.97;25.86;96237.94;6207663;28;103388;-48
2022/03/23 07:24:42;;;;;;;21.23;18.97;;;;;;;23.87;26.07;96227.38;6186811;28;103042;-47
2022/03/23 07:27:45;;;;;;;20.77;18.87;;;;;;;23.97;25.68;96245.94;6181891;28;102838;-47
2022/03/23 07:30:46;;;;;;;21.87;19.77;;;;;;;23.97;25.43;96241.41;6181383;28;103276;-47
2022/03/23 07:33:50;;;;;;;20.87;18.90;;;;;;;23.98;25.68;96240.34;6175938;28;103119;-47
2022/03/23 07:36:51;;;;;;;21.47;19.47;;;;;;;23.99;25.84;96235.78;6182251;28;102940;-48
2022/03/23 07:39:53;;;;;;;21.37;19.57;;;;;;;24.00;25.39;96238.16;6182190;28;102858;-48
2022/03/23 07:43:00;;;;;;;21.83;19.83;;;;;;;23.99;25.42;96239.25;6181384;28;103439;-48
2022/03/23 07:46:04;;;;;;;20.30;18.53;;;;;;;24.01;25.09;96228.28;6176503;28;103419;-48
2022/03/23 07:49:06;;;;;;;22.00;20.00;;;;;;;24.02;25.18;96229.91;6181381;28;102739;-47
2022/03/23 07:52:08;;;;;;;21.50;19.53;;;;;;;24.01;25.48;96236.28;6182566;28;103245;-48
2022/03/23 07:55:10;;;;;;;22.20;20.17;;;;;;;24.01;25.41;96228.28;6177625;28;103171;-44
2022/03/23 07:58:12;;;;;;;21.20;19.37;;;;;;;24.04;25.42;96221.63;6181420;28;103290;-44
2022/03/23 08:01:15;;;;;;;22.57;20.43;;;;;;;23.98;24.96;96223.53;6181207;28;103163;-48
2022/03/23 08:04:17;;;;;;;23.33;21.20;;;;;;;24.03;25.23;96228.03;6181026;28;102840;-48
2022/03/23 08:07:19;;;;;;;21.93;20.03;;;;;;;23.97;25.34;96211.25;6176316;28;103695;-47
2022/03/23 08:10:21;;;;;;;21.90;20.00;;;;;;;24.04;24.95;96230.41;6181156;28;102825;-48
2022/03/23 08:13:22;;;;;;;22.90;20.87;;;;;;;24.04;24.74;96227.75;6181703;28;103526;-48
2022/03/23 08:16:24;;;;;;;22.67;20.57;;;;;;;24.00;24.65;96211.47;6181711;28;103104;-44
2022/03/23 08:19:31;;;;;;;23.67;21.57;;;;;;;24.04;25.17;96219.75;6175574;28;102750;-48
2022/03/23 08:22:33;;;;;;;22.33;20.40;;;;;;;24.06;25.04;96222.91;6181483;28;102716;-46
2022/03/23 08:25:41;;;;;;;23.00;20.90;;;;;;;24.07;24.57;96215.69;6202867;28;103595;-48
2022/03/23 08:28:46;;;;;;;23.63;21.53;;;;;;;24.06;24.47;96228.25;6200262;28;102819;-48
2022/03/23 08:31:48;;;;;;;23.20;21.20;;;;;;;24.07;24.42;96229.84;6205625;28;103242;-49
2022/03/23 08:34:50;;;;;;;23.57;21.47;;;;;;;24.03;24.79;96220.81;6204743;28;102776;-47
2022/03/23 08:37:52;;;;;;;23.43;21.33;;;;;;;24.08;24.50;96230.66;6187300;28;102917;-48
2022/03/23 08:40:54;;;;;;;24.53;22.33;;;;;;;24.07;24.47;96231.72;6199029;28;104569;-49
2022/03/23 08:43:56;;;;;;;24.40;22.40;;;;;;;24.07;24.50;96224.50;6206078;28;103281;-48
2022/03/23 08:46:57;;;;;;;24.13;22.00;;;;;;;24.05;24.87;96229.34;6205586;28;102851;-46
2022/03/23 08:50:00;;;;;;;23.90;21.83;;;;;;;24.02;24.92;96221.91;6205382;28;102766;-48
2022/03/23 08:53:03;;;;;;;24.40;22.33;;;;;;;24.02;24.87;96216.56;6199789;28;102836;-47
2022/03/23 08:56:08;;;;;;;24.97;22.87;;;;;;;24.05;24.38;96224.00;6204986;28;102753;-48
2022/03/23 08:59:09;;;;;;;25.30;23.00;;;;;;;24.04;24.90;96210.94;6205696;28;103412;-49
2022/03/23 09:02:11;;;;;;;23.93;21.83;;;;;;;24.01;24.83;96209.59;6199415;28;102832;-45
2022/03/23 09:05:14;;;;;;;26.00;23.90;;;;;;;24.03;24.44;96212.00;6205068;28;102758;-48
2022/03/23 09:08:16;;;;;;;24.30;22.10;;;;;;;24.02;24.56;96208.56;6205462;28;102990;-48
2022/03/23 09:11:18;;;;;;;24.43;22.40;;;;;;;24.00;24.33;96208.00;6205208;28;103005;-47
2022/03/23 09:14:22;;;;;;;26.00;23.80;;;;;;;23.96;24.66;96207.00;6182033;28;105480;-47
2022/03/23 09:17:23;;;;;;;24.87;22.70;;;;;;;23.98;24.65;96207.50;6205299;28;103364;-49
2022/03/23 09:20:28;;;;;;;24.07;21.97;;;;;;;24.00;24.40;96205.34;6187719;28;103172;-48
2022/03/23 09:23:30;;;;;;;24.67;22.47;;;;;;;24.00;24.64;96208.00;6193256;28;102821;-48
2022/03/23 09:26:32;;;;;;;25.23;23.23;;;;;;;24.01;24.91;96212.28;6180279;28;103149;-45
2022/03/23 09:29:34;;;;;;;26.50;24.30;;;;;;;23.99;24.85;96196.53;6180193;28;102763;-46
2022/03/23 09:32:36;;;;;;;28.57;26.17;;;;;;;23.99;24.93;96203.75;6179810;28;102796;-48
2022/03/23 09:35:38;;;;;;;30.10;27.60;;;;;;;23.99;25.13;96198.41;6174611;28;102761;-49
2022/03/23 09:38:39;;;;;;;31.63;28.93;;;;;;;23.97;24.74;96200.56;6180491;28;102838;-49
2022/03/23 09:41:43;;;;;;;30.27;27.70;;;;;;;23.95;25.35;96192.84;6179817;28;103310;-47
2022/03/23 09:44:47;;;;;;;31.83;29.00;;;;;;;23.95;24.88;96192.06;6179869;28;102741;-49
2022/03/23 09:47:48;;;;;;;32.40;29.70;;;;;;;23.94;25.48;96190.47;6174595;28;103033;-43
2022/03/23 09:50:53;;;;;;;33.53;30.73;;;;;;;23.94;25.14;96182.47;6179856;28;102739;-48
2022/03/23 09:53:57;;;;;;;32.70;29.90;;;;;;;23.92;25.04;96171.28;6181073;28;102712;-47
2022/03/23 09:56:59;;;;;;;35.63;32.57;;;;;;;23.92;25.52;96181.94;6179623;28;105524;-49
2022/03/23 10:00:00;;;;;;;35.80;32.80;;;;;;;23.86;25.32;96175.88;6184134;28;102793;-49
2022/03/23 10:03:46;;;;;;;33.70;30.90;;;;;;;23.87;25.11;96166.78;6183941;28;103663;-49
2022/03/23 10:07:15;;;;;;;36.97;33.80;;;;;;;23.85;24.91;96168.94;6184567;28;103087;-49
2022/03/23 10:10:20;;;;;;;35.33;32.43;;;;;;;23.84;25.33;96172.66;6182134;28;102707;-49
2022/03/23 10:13:49;;;;;;;35.50;32.57;;;;;;;23.82;25.39;96158.81;6183666;28;102813;-49
2022/03/23 10:17:09;;;;;;;38.20;34.90;;;;;;;23.80;25.13;96166.31;6183083;28;102727;-45
2022/03/23 10:20:12;;;;;;;37.93;34.87;;;;;;;23.71;25.63;96176.03;6179130;28;103312;-49
2022/03/23 10:23:18;;;;;;;38.10;35.00;;;;;;;23.70;25.15;96158.41;6185540;28;102817;-47
2022/03/23 10:26:20;;;;;;;41.67;38.17;;;;;;;23.78;25.42;96162.34;6208437;28;102821;-46
2022/03/23 10:29:24;;;;;;;43.30;39.40;;;;;;;23.76;25.12;96159.16;6203441;28;102897;-48
2022/03/23 10:32:37;;;;;;;44.77;40.80;;;;;;;23.70;25.40;96166.44;6207720;28;103125;-48
2022/03/23 10:35:42;;;;;;;43.23;39.63;;;;;;;23.65;25.62;96159.25;6207968;28;102700;-49
2022/03/23 10:38:44;;;;;;;47.33;43.10;;;;;;;23.64;25.05;96155.00;6207388;28;102899;-49
2022/03/23 10:42:28;;;;;;;47.00;43.10;;;;;;;23.58;25.11;96148.13;6201421;28;103182;-49
2022/03/23 10:45:32;;;;;;;48.83;44.70;;;;;;;23.57;25.68;96159.06;6189674;28;104256;-49
2022/03/23 10:48:33;;;;;;;50.83;46.43;;;;;;;23.53;25.74;96150.81;6207819;28;103457;-48
2022/03/23 10:51:37;;;;;;;49.43;45.20;;;;;;;23.50;25.22;96131.88;6202470;28;103236;-44
2022/03/23 10:54:41;;;;;;;52.70;48.27;;;;;;;23.47;25.26;96138.59;6207347;28;103167;-48
2022/03/23 10:57:51;;;;;;;52.53;48.20;;;;;;;23.46;25.68;96130.88;6207566;28;102855;-49
2022/03/23 11:00:56;;;;;;;53.30;48.73;;;;;;;23.46;25.16;96121.00;6206866;28;102725;-48
2022/03/23 11:04:07;;;;;;;52.83;48.40;;;;;;;23.45;24.98;96119.41;6201430;28;102972;-48
2022/03/23 11:07:23;;;;;;;56.50;51.50;;;;;;;23.43;25.53;96113.56;6207213;28;103185;-49
2022/03/23 11:17:28;;;;;;;57.40;52.63;;;;;;;23.39;25.59;96099.19;6206659;28;102762;-47
2022/03/23 11:20:55;;;;;;;57.17;52.27;;;;;;;23.49;25.10;96103.63;6207627;28;103288;-48
2022/03/23 11:23:57;;;;;;;55.20;50.57;;;;;;;23.50;25.37;96106.00;6193450;28;103241;-49
2022/03/23 11:27:00;;;;;;;57.10;52.40;;;;;;;23.54;25.47;96107.06;6176747;28;103114;-49
2022/03/23 11:30:02;;;;;;;54.90;50.40;;;;;;;23.60;25.19;96108.63;6182341;28;103557;-48
2022/03/23 11:33:07;;;;;;;53.70;49.10;;;;;;;23.60;25.70;96100.63;6182033;28;102698;-49
2022/03/23 11:36:11;;;;;;;50.63;46.47;;;;;;;23.57;25.68;96100.38;6176502;28;102977;-48
2022/03/23 11:39:13;;;;;;;52.10;47.63;;;;;;;23.51;25.31;96102.25;6181635;28;102732;-44
2022/03/23 11:42:16;;;;;;;47.13;43.20;;;;;;;23.33;25.62;96073.63;6181286;28;102815;-49
2022/03/23 11:45:18;;;;;;;47.33;43.33;;;;;;;23.46;25.56;96093.53;6181283;28;102983;-46
2022/03/23 11:48:38;;;;;;;48.43;44.43;;;;;;;23.42;25.65;96093.31;6176947;28;102766;-46
2022/03/23 11:51:49;;;;;;;50.93;46.53;;;;;;;23.40;26.06;96090.13;6182481;28;103005;-47
2022/03/23 11:55:40;;;;;;;51.27;46.97;;;;;;;23.37;25.66;96090.69;6181835;28;103597;-49
2022/03/23 11:58:36;;;;;;;51.47;47.03;;;;;;;23.36;25.96;96094.44;6173572;28;103052;-44
2022/03/23 12:01:38;;;;;;;50.97;46.70;;;;;;;23.35;25.65;96082.19;6181955;28;103332;-49
2022/03/23 12:04:40;;;;;;;52.33;48.07;;;;;;;23.32;25.47;96080.06;6182047;28;102755;-47
2022/03/23 12:07:46;;;;;;;52.53;48.13;;;;;;;23.27;25.72;96066.78;6180974;28;102735;-49
2022/03/23 12:10:47;;;;;;;51.70;47.30;;;;;;;23.31;25.84;96073.13;6176442;28;102922;-49
2022/03/23 12:13:56;;;;;;;50.40;46.17;;;;;;;23.26;25.72;96060.66;6180735;28;102709;-49
2022/03/23 12:17:02;;;;;;;50.00;45.90;;;;;;;23.28;25.44;96061.16;6180137;28;102669;-49
2022/03/23 12:20:16;;;;;;;47.60;43.63;;;;;;;23.26;25.35;96059.84;6175640;28;102853;-48
2022/03/23 12:23:36;;;;;;;47.77;43.87;;;;;;;23.26;25.86;96062.53;6166033;28;102874;-48
2022/03/23 12:26:43;;;;;;;49.07;44.97;;;;;;;23.23;25.76;96052.44;6188037;28;103242;-48
2022/03/23 12:29:47;;;;;;;47.13;43.43;;;;;;;23.24;25.39;96052.13;6205473;28;102779;-49
2022/03/23 12:32:50;;;;;;;48.00;44.10;;;;;;;23.23;25.77;96052.44;6200584;28;102721;-48
2022/03/23 12:35:57;;;;;;;47.67;43.57;;;;;;;23.16;25.47;96047.41;6206260;28;102748;-49
2022/03/23 12:38:59;;;;;;;46.63;42.80;;;;;;;23.16;25.64;96050.06;6205676;28;102751;-47
2022/03/23 12:42:16;;;;;;;47.00;42.97;;;;;;;23.21;25.25;96038.59;6200345;28;103286;-49
2022/03/23 12:45:22;;;;;;;45.47;41.77;;;;;;;23.19;25.24;96046.06;6204551;28;102785;-48
2022/03/23 12:58:38;;;;;;;43.23;39.60;;;;;;;23.11;25.18;96016.25;6204852;28;102809;-48
2022/03/23 13:01:40;;;;;;;42.83;39.20;;;;;;;23.17;25.68;96021.53;6205442;28;102778;-42
2022/03/23 13:04:44;;;;;;;42.27;38.87;;;;;;;23.17;25.63;96011.66;6200238;28;103289;-46
2022/03/23 13:07:48;;;;;;;41.80;38.30;;;;;;;23.17;25.58;96021.53;6205250;28;102752;-43
2022/03/23 13:10:59;;;;;;;41.00;37.60;;;;;;;23.16;25.20;96027.94;6205395;28;102720;-46
2022/03/23 13:14:01;;;;;;;39.97;36.67;;;;;;;23.15;25.19;96013.81;6204611;28;103035;-45
2022/03/23 13:17:05;;;;;;;38.57;35.40;;;;;;;23.13;25.30;96017.84;6199682;28;102856;-42
2022/03/23 13:20:09;;;;;;;38.03;34.87;;;;;;;23.13;25.17;96013.31;6205832;28;103485;-46
2022/03/23 13:23:13;;;;;;;38.30;35.17;;;;;;;23.13;25.54;96015.97;6202862;28;102719;-46
2022/03/23 13:26:41;;;;;;;37.43;34.33;;;;;;;23.13;25.11;96009.84;6175215;28;102699;-46
2022/03/23 13:29:43;;;;;;;37.80;34.70;;;;;;;23.07;25.05;95998.47;6175832;28;103112;-45
2022/03/23 13:32:50;;;;;;;37.27;34.30;;;;;;;23.11;25.01;95997.59;6185114;28;102704;-46
2022/03/23 13:35:54;;;;;;;37.63;34.40;;;;;;;23.11;24.89;95997.59;6185308;28;102747;-45
2022/03/23 13:38:57;;;;;;;34.90;32.20;;;;;;;23.11;25.43;95997.59;6180346;28;103152;-45
2022/03/23 13:45:19;;;;;;;34.43;31.53;;;;;;;23.07;25.23;95991.25;6184151;28;102719;-45
2022/03/23 13:48:21;;;;;;;33.13;30.53;;;;;;;23.10;25.36;95996.03;6161748;28;104039;-46
2022/03/23 13:51:23;;;;;;;33.93;31.20;;;;;;;23.08;25.30;95992.84;6183938;28;102808;-45
2022/03/23 13:54:25;;;;;;;34.47;31.57;;;;;;;23.06;25.23;95978.22;6184336;28;102784;-46
2022/03/23 13:57:30;;;;;;;32.90;30.20;;;;;;;23.05;25.09;95977.41;6183831;28;102819;-46
2022/03/23 14:00:32;;;;;;;31.97;29.30;;;;;;;23.03;24.87;95968.91;6178423;28;103151;-46
2022/03/23 14:03:37;;;;;;;31.33;28.83;;;;;;;23.02;25.31;95966.53;6184086;28;102797;-45
2022/03/23 14:06:51;;;;;;;32.20;29.70;;;;;;;23.06;25.33;95970.22;6183455;28;103114;-46
2022/03/23 14:09:53;;;;;;;31.30;28.70;;;;;;;23.05;25.00;95974.75;6179469;28;103826;-45
2022/03/23 14:12:57;;;;;;;31.97;29.43;;;;;;;23.03;25.21;95978.78;6183524;28;102889;-46
2022/03/23 14:16:19;;;;;;;31.37;28.87;;;;;;;23.14;25.37;95968.78;6183927;28;102715;-45
2022/03/23 14:19:21;;;;;;;29.80;27.40;;;;;;;23.20;26.03;95970.34;6183112;28;102740;-46
2022/03/23 14:22:25;;;;;;;29.27;26.97;;;;;;;23.18;25.78;95970.63;6178322;28;102741;-45
2022/03/23 14:25:27;;;;;;;29.03;26.73;;;;;;;23.13;25.33;95973.31;6204713;28;103404;-45
2022/03/23 14:28:30;;;;;;;29.03;26.73;;;;;;;23.11;25.18;95976.28;6207731;28;102744;-45
2022/03/23 14:31:32;;;;;;;28.20;25.80;;;;;;;23.08;25.28;95965.41;6203453;28;103369;-42
2022/03/23 14:34:37;;;;;;;26.93;24.70;;;;;;;23.06;24.97;95968.34;6207072;28;102721;-45
2022/03/23 14:37:44;;;;;;;26.13;24.10;;;;;;;23.06;25.34;95968.34;6207749;28;103204;-45